createdAt,value
2023-01-04T00:01:35.284Z,6.20
2023-01-04T00:04:03.630Z,5.17
2023-01-04T00:06:32.058Z,6.63
2023-01-04T00:09:00.303Z,7.03
2023-01-04T00:11:28.940Z,7.00
2023-01-04T00:13:59.566Z,5.50
2023-01-04T00:16:29.740Z,5.90
2023-01-04T00:18:58.549Z,6.90
2023-01-04T00:21:28.465Z,6.00
2023-01-04T00:23:59.309Z,6.47
2023-01-04T00:26:29.681Z,5.70
2023-01-04T00:29:01.027Z,5.67
2023-01-04T00:31:30.383Z,5.70
2023-01-04T00:34:00.125Z,6.30
2023-01-04T00:36:28.861Z,6.13
2023-01-04T00:39:12.472Z,6.17
2023-01-04T00:41:58.915Z,7.00
2023-01-04T00:44:31.137Z,5.93
2023-01-04T00:46:59.903Z,5.93
2023-01-04T00:49:28.813Z,5.87
2023-01-04T00:51:57.406Z,6.43
2023-01-04T00:54:26.163Z,6.30
2023-01-04T00:56:54.675Z,6.40
2023-01-04T00:59:23.503Z,6.80
2023-01-04T01:01:53.321Z,6.33
2023-01-04T01:04:23.239Z,7.37
2023-01-04T01:06:52.882Z,7.03
2023-01-04T01:09:22.919Z,6.70
2023-01-04T01:11:52.316Z,6.63
2023-01-04T01:14:23.370Z,6.50
2023-01-04T01:16:57.019Z,6.90
2023-01-04T01:19:27.483Z,7.60
2023-01-04T01:21:57.311Z,7.47
2023-01-04T01:24:25.683Z,6.40
2023-01-04T01:26:54.698Z,7.50
2023-01-04T01:29:23.041Z,8.00
2023-01-04T01:31:52.552Z,7.47
2023-01-04T01:34:20.913Z,6.80
2023-01-04T01:36:49.124Z,6.93
2023-01-04T01:39:17.231Z,7.17
2023-01-04T01:41:45.421Z,6.10
2023-01-04T01:44:50.580Z,6.60
2023-01-04T01:47:22.711Z,6.63
2023-01-04T01:49:54.211Z,6.30
2023-01-04T01:52:25.486Z,6.53
2023-01-04T01:54:58.315Z,5.73
2023-01-04T01:57:30.050Z,5.90
2023-01-04T02:00:02.190Z,7.90
2023-01-04T02:02:31.915Z,6.80
2023-01-04T02:05:01.571Z,6.20
2023-01-04T02:07:30.246Z,6.00
2023-01-04T02:09:59.424Z,5.87
2023-01-04T02:12:27.589Z,6.23
2023-01-04T02:14:55.649Z,6.63
2023-01-04T02:17:35.428Z,5.80
2023-01-04T02:20:35.963Z,6.43
2023-01-04T02:23:38.758Z,5.93
2023-01-04T02:26:37.304Z,5.97
2023-01-04T02:29:25.541Z,6.33
2023-01-04T02:31:57.932Z,5.80
2023-01-04T02:34:37.372Z,6.63
2023-01-04T02:37:11.711Z,4.93
2023-01-04T02:39:48.443Z,5.20
2023-01-04T02:42:22.960Z,5.23
2023-01-04T02:44:53.892Z,5.20
2023-01-04T02:47:45.599Z,5.37
2023-01-04T02:50:36.061Z,4.83
2023-01-04T02:53:08.596Z,4.93
2023-01-04T02:55:49.202Z,5.17
2023-01-04T02:58:33.352Z,5.37
2023-01-04T03:01:26.513Z,5.10
2023-01-04T03:04:25.367Z,4.40
2023-01-04T03:07:00.898Z,4.03
2023-01-04T03:09:34.435Z,4.90
2023-01-04T03:12:25.785Z,3.53
2023-01-04T03:15:00.459Z,3.77
2023-01-04T03:17:34.563Z,3.43
2023-01-04T03:20:04.717Z,3.70
2023-01-04T03:22:55.160Z,3.20
2023-01-04T03:25:44.752Z,3.87
2023-01-04T03:28:32.698Z,2.43
2023-01-04T03:31:36.817Z,3.00
2023-01-04T03:34:22.799Z,2.73
2023-01-04T03:37:04.858Z,3.23
2023-01-04T03:40:04.820Z,2.30
2023-01-04T03:43:00.568Z,2.60
2023-01-04T03:45:49.935Z,2.87
2023-01-04T03:48:31.425Z,2.60
2023-01-04T03:51:09.925Z,2.03
2023-01-04T03:53:46.753Z,2.13
2023-01-04T03:56:16.753Z,2.10
2023-01-04T03:58:46.301Z,2.50
2023-01-04T04:01:14.950Z,2.50
2023-01-04T04:04:00.392Z,2.50
2023-01-04T04:06:45.951Z,2.23
2023-01-04T04:09:15.371Z,1.93
2023-01-04T04:11:43.547Z,2.10
2023-01-04T04:14:11.788Z,2.30
2023-01-04T04:16:40.253Z,2.33
2023-01-04T04:19:09.154Z,2.23
2023-01-04T04:21:37.905Z,2.20
2023-01-04T04:24:07.272Z,2.20
2023-01-04T04:26:36.858Z,2.30
2023-01-04T04:29:04.999Z,2.53
2023-01-04T04:31:33.169Z,2.20
2023-01-04T04:34:01.267Z,2.10
2023-01-04T04:36:29.392Z,1.70
2023-01-04T04:38:57.610Z,1.80
2023-01-04T04:41:39.688Z,1.50
2023-01-04T04:44:10.235Z,1.80
2023-01-04T04:46:38.535Z,1.60
2023-01-04T04:49:07.675Z,1.40
2023-01-04T04:51:36.531Z,1.50
2023-01-04T04:54:05.122Z,1.70
2023-01-04T04:56:33.330Z,1.57
2023-01-04T04:59:01.653Z,1.50
2023-01-04T05:01:31.706Z,1.60
2023-01-04T05:03:59.998Z,1.87
2023-01-04T05:06:29.595Z,1.50
2023-01-04T05:08:57.709Z,1.63
2023-01-04T05:11:39.690Z,1.60
2023-01-04T05:14:07.766Z,1.83
2023-01-04T05:16:37.562Z,1.50
2023-01-04T05:19:05.823Z,1.77
2023-01-04T05:21:33.911Z,1.80
2023-01-04T05:24:02.050Z,1.90
2023-01-04T05:26:30.187Z,2.00
2023-01-04T05:28:58.310Z,2.50
2023-01-04T05:31:26.090Z,1.70
2023-01-04T05:33:55.536Z,2.10
2023-01-04T05:36:23.633Z,1.80
2023-01-04T05:38:51.783Z,1.77
2023-01-04T05:41:37.249Z,1.73
2023-01-04T05:44:05.443Z,2.67
2023-01-04T05:46:33.651Z,1.60
2023-01-04T05:49:03.365Z,2.37
2023-01-04T05:51:31.577Z,2.80
2023-01-04T05:53:59.815Z,2.00
2023-01-04T05:56:28.012Z,2.20
2023-01-04T05:58:56.140Z,2.53
2023-01-04T06:01:24.399Z,1.93
2023-01-04T06:03:52.637Z,2.00
2023-01-04T06:06:22.184Z,2.40
2023-01-04T06:08:50.295Z,2.03
2023-01-04T06:11:22.638Z,1.93
2023-01-04T06:13:53.827Z,2.70
2023-01-04T06:16:22.077Z,2.17
2023-01-04T06:18:52.149Z,1.80
2023-01-04T06:21:21.795Z,2.00
2023-01-04T06:23:49.892Z,1.70
2023-01-04T06:26:18.059Z,1.43
2023-01-04T06:28:46.324Z,1.73
2023-01-04T06:31:14.874Z,1.53
2023-01-04T06:33:43.170Z,1.40
2023-01-04T06:36:19.439Z,1.70
2023-01-04T06:38:50.522Z,1.27
2023-01-04T06:41:19.170Z,1.50
2023-01-04T06:43:47.471Z,1.27
2023-01-04T06:46:15.841Z,1.50
2023-01-04T06:48:44.147Z,1.60
2023-01-04T06:51:12.236Z,1.50
2023-01-04T06:53:40.341Z,1.50
2023-01-04T06:56:10.227Z,1.60
2023-01-04T06:58:38.364Z,1.80
2023-01-04T07:01:07.198Z,2.23
2023-01-04T07:03:35.733Z,2.10
2023-01-04T07:06:06.275Z,1.80
2023-01-04T07:08:35.041Z,2.07
2023-01-04T07:11:03.620Z,1.73
2023-01-04T07:13:33.240Z,2.00
2023-01-04T07:16:01.446Z,1.50
2023-01-04T07:18:29.600Z,1.53
2023-01-04T07:20:57.786Z,1.40
2023-01-04T07:23:26.010Z,1.47
2023-01-04T07:25:54.140Z,1.70
2023-01-04T07:28:36.255Z,1.23
2023-01-04T07:31:09.832Z,1.20
2023-01-04T07:33:38.248Z,1.30
2023-01-04T07:36:07.963Z,1.20
2023-01-04T07:38:36.815Z,1.00
2023-01-04T07:41:05.424Z,1.23
2023-01-04T07:43:33.604Z,0.90
2023-01-04T07:46:01.850Z,1.10
2023-01-04T07:48:31.489Z,1.10
2023-01-04T07:50:59.621Z,1.20
2023-01-04T07:53:27.792Z,1.00
2023-01-04T07:55:59.653Z,1.10
2023-01-04T07:58:28.536Z,1.10
2023-01-04T08:00:57.806Z,0.90
2023-01-04T08:03:25.952Z,1.10
2023-01-04T08:05:55.533Z,1.27
2023-01-04T08:08:23.652Z,1.30
2023-01-04T08:10:51.898Z,1.00
2023-01-04T08:13:20.041Z,1.20
2023-01-04T08:15:53.872Z,1.30
2023-01-04T08:18:22.161Z,1.17
2023-01-04T08:20:54.948Z,0.97
2023-01-04T08:23:27.924Z,1.10
2023-01-04T08:25:56.000Z,1.10
2023-01-04T08:28:24.097Z,1.10
2023-01-04T08:30:52.326Z,1.00
2023-01-04T08:33:20.452Z,1.10
2023-01-04T08:35:48.518Z,1.20
2023-01-04T08:38:57.630Z,1.03
2023-01-04T08:41:23.500Z,1.10
2023-01-04T08:43:54.976Z,1.10
2023-01-04T08:46:23.090Z,0.93
2023-01-04T08:48:52.799Z,1.10
2023-01-04T08:51:20.883Z,1.70
2023-01-04T08:53:48.923Z,1.30
2023-01-04T08:56:19.336Z,1.13
2023-01-04T08:58:47.437Z,1.17
2023-01-04T09:01:15.614Z,1.20
2023-01-04T09:03:43.756Z,1.30
2023-01-04T09:06:13.606Z,1.30
2023-01-04T09:08:43.219Z,1.30
2023-01-04T09:11:13.473Z,1.20
2023-01-04T09:13:43.578Z,1.40
2023-01-04T09:16:14.626Z,1.43
2023-01-04T09:18:42.809Z,1.30
2023-01-04T09:21:13.253Z,1.17
2023-01-04T09:23:42.668Z,1.30
2023-01-04T09:26:12.729Z,2.00
2023-01-04T09:28:42.171Z,1.20
2023-01-04T09:31:12.201Z,1.07
2023-01-04T09:34:12.805Z,1.10
2023-01-04T09:36:28.804Z,1.47
2023-01-04T09:38:57.186Z,1.03
2023-01-04T09:41:28.160Z,1.17
2023-01-04T09:44:02.070Z,1.03
2023-01-04T09:46:34.717Z,1.10
2023-01-04T09:49:15.465Z,0.97
2023-01-04T09:51:49.604Z,1.20
2023-01-04T09:54:22.908Z,1.33
2023-01-04T09:56:53.583Z,1.07
2023-01-04T09:59:30.297Z,1.03
2023-01-04T10:02:02.633Z,0.93
2023-01-04T10:04:42.109Z,1.00
2023-01-04T10:07:19.265Z,1.10
2023-01-04T10:09:47.465Z,1.00
2023-01-04T10:12:28.226Z,1.40
2023-01-04T10:15:08.816Z,1.03
2023-01-04T10:23:53.589Z,1.20
2023-01-04T10:26:25.631Z,1.10
2023-01-04T10:29:10.811Z,1.10
2023-01-04T10:31:45.756Z,1.00
2023-01-04T10:34:23.396Z,1.20
2023-01-04T10:36:55.705Z,1.00
2023-01-04T10:39:32.324Z,1.03
2023-01-04T10:42:07.971Z,1.17
2023-01-04T10:44:45.424Z,1.20
2023-01-04T10:47:23.343Z,0.90
2023-01-04T10:49:56.152Z,1.10
2023-01-04T10:52:29.925Z,1.10
2023-01-04T10:55:04.748Z,1.07
2023-01-04T10:57:38.215Z,1.20
2023-01-04T11:00:12.156Z,1.10
2023-01-04T11:02:49.245Z,1.03
2023-01-04T11:05:22.972Z,1.10
2023-01-04T11:07:56.864Z,1.00
2023-01-04T11:10:29.862Z,1.13
2023-01-04T11:12:58.172Z,1.10
2023-01-04T11:15:26.413Z,1.10
2023-01-04T11:17:56.127Z,1.30
2023-01-04T11:20:27.034Z,1.10
2023-01-04T11:23:02.419Z,1.10
2023-01-04T11:25:36.893Z,1.00
2023-01-04T11:28:16.003Z,1.10
2023-01-04T11:30:55.418Z,1.00
2023-01-04T11:33:25.956Z,1.20
2023-01-04T11:35:56.983Z,1.20
2023-01-04T11:38:27.688Z,1.20
2023-01-04T11:40:59.350Z,1.00
2023-01-04T11:43:29.605Z,1.20
2023-01-04T11:46:03.707Z,1.10
2023-01-04T11:48:43.840Z,1.20
2023-01-04T11:51:21.078Z,1.20
2023-01-04T11:53:59.277Z,1.30
2023-01-04T11:56:29.368Z,1.20
2023-01-04T11:59:20.719Z,1.00
2023-01-04T12:02:11.343Z,1.27
2023-01-04T12:04:40.998Z,1.10
2023-01-04T12:07:27.693Z,1.20
2023-01-04T12:09:56.141Z,1.00
2023-01-04T12:12:29.823Z,2.07
2023-01-04T12:15:01.023Z,1.43
2023-01-04T12:17:41.328Z,1.30
2023-01-04T12:20:19.988Z,1.50
2023-01-04T12:22:48.405Z,1.63
2023-01-04T12:25:30.029Z,1.13
2023-01-04T12:27:58.318Z,1.50
2023-01-04T12:30:41.979Z,1.30
2023-01-04T12:33:38.763Z,1.30
2023-01-04T12:36:09.745Z,2.40
2023-01-04T12:39:14.338Z,1.60
2023-01-04T12:42:22.236Z,2.33
2023-01-04T12:45:17.844Z,1.37
2023-01-04T12:48:10.152Z,1.13
2023-01-04T12:51:32.838Z,1.13
2023-01-04T12:54:05.246Z,1.10
2023-01-04T12:57:23.821Z,1.10
2023-01-04T12:59:58.230Z,1.20
2023-01-04T13:02:28.744Z,1.00
2023-01-04T13:07:49.256Z,1.23
2023-01-04T13:10:32.479Z,1.10
2023-01-04T13:13:24.170Z,1.20
2023-01-04T13:16:03.636Z,1.20
2023-01-04T13:18:38.791Z,1.10
2023-01-04T13:21:13.912Z,1.00
2023-01-04T13:23:48.035Z,1.20
2023-01-04T13:26:37.161Z,1.10
2023-01-04T13:29:20.496Z,1.00
2023-01-04T13:31:57.749Z,1.00
2023-01-04T13:34:29.058Z,1.40
2023-01-04T13:37:05.621Z,1.00
2023-01-04T13:39:33.858Z,1.00
2023-01-04T13:42:04.283Z,1.07
2023-01-04T13:45:21.364Z,1.20
2023-01-04T13:47:52.906Z,1.10
2023-01-04T13:50:32.340Z,1.00
2023-01-04T13:53:08.997Z,0.90
2023-01-04T13:55:39.332Z,1.10
2023-01-04T13:58:18.646Z,1.07
2023-01-04T14:00:50.666Z,1.30
2023-01-04T14:03:28.441Z,1.00
2023-01-04T14:06:11.967Z,1.53
2023-01-04T14:08:42.498Z,1.10
2023-01-04T14:11:40.960Z,1.20
2023-01-04T14:14:25.152Z,1.00
2023-01-04T14:17:05.760Z,1.20
2023-01-04T14:19:45.295Z,1.00
2023-01-04T14:22:41.437Z,1.10
2023-01-04T14:25:56.152Z,1.10
2023-01-04T14:28:41.612Z,1.20
2023-01-04T14:31:23.170Z,1.10
2023-01-04T14:33:53.495Z,1.10
2023-01-04T14:36:26.628Z,1.10
2023-01-04T14:39:09.436Z,1.03
2023-01-04T14:41:39.960Z,1.00
2023-01-04T14:44:12.921Z,1.20
2023-01-04T14:46:43.773Z,1.10
2023-01-04T14:49:11.993Z,1.20
2023-01-04T14:51:44.143Z,1.10
2023-01-04T14:54:18.855Z,1.20
2023-01-04T14:56:48.817Z,1.00
2023-01-04T14:59:16.851Z,1.10
2023-01-04T15:01:46.326Z,1.07
2023-01-04T15:04:14.614Z,1.20
2023-01-04T15:06:49.796Z,1.10
2023-01-04T15:09:17.873Z,1.00
2023-01-04T15:11:46.123Z,1.20
2023-01-04T15:14:14.663Z,1.10
2023-01-04T15:16:42.917Z,1.10
2023-01-04T15:19:12.622Z,1.10
2023-01-04T15:21:41.894Z,1.20
2023-01-04T15:24:11.092Z,1.10
2023-01-04T15:26:40.084Z,1.30
2023-01-04T15:29:08.743Z,1.20
2023-01-04T15:31:40.354Z,1.20
2023-01-04T15:34:10.379Z,1.30
2023-01-04T15:36:41.247Z,1.20
2023-01-04T15:39:12.821Z,1.10
2023-01-04T15:42:07.179Z,1.13
2023-01-04T15:44:35.303Z,1.27
2023-01-04T15:47:03.583Z,1.17
2023-01-04T15:49:31.834Z,1.50
2023-01-04T15:52:01.246Z,1.30
2023-01-04T15:54:29.800Z,1.10
2023-01-04T15:56:58.149Z,1.10
2023-01-04T15:59:26.747Z,1.20
2023-01-04T16:01:54.859Z,1.20
2023-01-04T16:04:23.256Z,1.20
2023-01-04T16:06:51.403Z,1.20
2023-01-04T16:09:21.335Z,1.27
2023-01-04T16:12:07.206Z,1.10
2023-01-04T16:14:35.579Z,1.23
2023-01-04T16:17:03.644Z,1.10
2023-01-04T16:19:34.142Z,1.00
2023-01-04T16:22:02.375Z,1.20
2023-01-04T16:27:20.437Z,1.20
2023-01-04T16:29:50.463Z,1.10
2023-01-04T16:32:19.223Z,1.10
2023-01-04T16:34:47.590Z,1.07
2023-01-04T16:37:15.806Z,1.00
2023-01-04T16:42:33.917Z,1.10
2023-01-04T16:45:02.110Z,1.17
2023-01-04T16:47:30.218Z,1.00
2023-01-04T16:49:58.423Z,1.20
2023-01-04T16:52:27.613Z,1.10
2023-01-04T16:54:57.498Z,1.20
2023-01-04T16:57:25.776Z,1.10
2023-01-04T16:59:54.218Z,1.10
2023-01-04T17:02:23.165Z,1.10
2023-01-04T17:04:55.523Z,1.10
2023-01-04T17:07:23.846Z,1.10
2023-01-04T17:09:51.998Z,1.20
2023-01-04T17:17:59.746Z,1.17
2023-01-04T17:20:28.032Z,1.10
2023-01-04T17:22:56.285Z,1.40
2023-01-04T17:25:25.645Z,1.13
2023-01-04T17:27:55.402Z,1.17
2023-01-04T17:30:24.343Z,1.30
2023-01-04T17:32:53.269Z,1.20
2023-01-04T17:35:21.920Z,1.10
2023-01-04T17:37:50.735Z,1.10
2023-01-04T17:40:23.280Z,1.20
2023-01-04T17:42:52.714Z,1.30
2023-01-04T17:45:23.643Z,1.10
2023-01-04T17:47:52.419Z,1.10
2023-01-04T17:50:20.742Z,1.20
2023-01-04T17:52:50.672Z,1.20
2023-01-04T17:55:19.565Z,1.17
2023-01-04T17:57:47.975Z,1.10
2023-01-04T18:00:16.696Z,1.27
2023-01-04T18:02:46.278Z,1.20
2023-01-04T18:05:14.541Z,1.20
2023-01-04T18:07:42.650Z,1.13
2023-01-04T18:10:21.477Z,1.10
2023-01-04T18:13:03.160Z,1.20
2023-01-04T18:15:31.230Z,1.20
2023-01-04T18:18:00.667Z,1.20
2023-01-04T18:20:28.767Z,1.20
2023-01-04T18:22:56.805Z,1.20
2023-01-04T18:25:25.122Z,1.20
2023-01-04T18:27:54.041Z,1.27
2023-01-04T18:30:22.042Z,1.20
2023-01-04T18:32:50.081Z,1.43
2023-01-04T18:35:19.498Z,1.20
2023-01-04T18:37:47.635Z,1.10
2023-01-04T18:40:15.756Z,1.30
2023-01-04T18:42:47.943Z,1.40
2023-01-04T18:45:16.454Z,1.20
2023-01-04T18:47:47.441Z,1.10
2023-01-04T18:50:15.998Z,1.30
2023-01-04T18:52:45.789Z,1.10
2023-01-04T18:55:14.020Z,1.20
2023-01-04T18:57:42.346Z,1.40
2023-01-04T19:00:11.981Z,1.10
2023-01-04T19:02:40.354Z,1.20
2023-01-04T19:05:09.267Z,1.20
2023-01-04T19:07:39.908Z,1.10
2023-01-04T19:10:10.439Z,1.20
2023-01-04T19:12:38.923Z,1.30
2023-01-04T19:15:08.680Z,1.30
2023-01-04T19:17:37.334Z,1.20
2023-01-04T19:20:06.187Z,1.10
2023-01-04T19:22:34.909Z,1.10
2023-01-04T19:25:03.052Z,1.40
2023-01-04T19:27:32.569Z,1.30
2023-01-04T19:30:01.065Z,1.20
2023-01-04T19:32:33.427Z,1.30
2023-01-04T19:35:01.924Z,1.33
2023-01-04T19:37:30.449Z,1.30
2023-01-04T19:39:58.559Z,1.30
2023-01-04T19:42:26.630Z,1.63
2023-01-04T19:44:56.217Z,1.20
2023-01-04T19:47:24.381Z,1.40
2023-01-04T19:49:52.606Z,1.30
2023-01-04T19:52:20.866Z,1.20
2023-01-04T19:54:49.122Z,1.40
2023-01-04T19:57:17.341Z,1.30
2023-01-04T19:59:45.526Z,1.40
2023-01-04T20:02:15.303Z,1.30
2023-01-04T20:04:43.823Z,1.40
2023-01-04T20:07:11.956Z,1.70
2023-01-04T20:09:40.153Z,1.53
2023-01-04T20:12:08.563Z,1.53
2023-01-04T20:14:36.782Z,1.40
2023-01-04T20:17:04.902Z,1.50
2023-01-04T20:19:34.383Z,1.40
2023-01-04T20:22:02.400Z,1.80
2023-01-04T20:24:30.617Z,1.50
2023-01-04T20:26:58.710Z,1.50
2023-01-04T20:29:26.730Z,1.53
2023-01-04T20:31:55.947Z,1.40
2023-01-04T20:34:24.094Z,1.70
2023-01-04T20:36:53.784Z,1.60
2023-01-04T20:39:22.232Z,1.90
2023-01-04T20:42:07.782Z,1.77
2023-01-04T20:44:36.017Z,1.60
2023-01-04T20:47:04.657Z,1.73
2023-01-04T20:49:32.820Z,1.67
2023-01-04T20:52:02.303Z,1.50
2023-01-04T20:54:30.368Z,1.70
2023-01-04T20:56:58.376Z,1.50
2023-01-04T20:59:26.510Z,1.93
2023-01-04T21:01:54.679Z,1.77
2023-01-04T21:04:22.923Z,1.73
2023-01-04T21:06:50.990Z,1.60
2023-01-04T21:09:20.421Z,1.70
2023-01-04T21:11:48.704Z,2.10
2023-01-04T21:14:16.831Z,1.60
2023-01-04T21:16:45.383Z,1.60
2023-01-04T21:19:13.856Z,1.50
2023-01-04T21:21:41.972Z,1.50
2023-01-04T21:24:10.121Z,1.70
2023-01-04T21:26:39.592Z,1.80
2023-01-04T21:29:07.626Z,1.70
2023-01-04T21:31:35.853Z,2.00
2023-01-04T21:34:09.344Z,1.80
2023-01-04T21:36:40.979Z,2.00
2023-01-04T21:39:09.087Z,1.97
2023-01-04T21:41:38.158Z,1.60
2023-01-04T21:44:09.924Z,1.80
2023-01-04T21:46:38.067Z,1.77
2023-01-04T21:49:06.379Z,1.60
2023-01-04T21:51:35.136Z,1.80
2023-01-04T21:54:03.388Z,1.90
2023-01-04T21:56:31.986Z,1.70
2023-01-04T21:59:00.037Z,1.60
2023-01-04T22:01:34.947Z,1.70
2023-01-04T22:04:04.439Z,1.70
2023-01-04T22:06:37.253Z,2.00
2023-01-04T22:09:05.709Z,1.77
2023-01-04T22:11:33.827Z,1.60
2023-01-04T22:14:01.885Z,1.60
2023-01-04T22:16:31.401Z,1.60
2023-01-04T22:18:59.586Z,1.60
2023-01-04T22:21:27.717Z,1.60
2023-01-04T22:23:55.827Z,1.70
2023-01-04T22:26:24.241Z,1.70
2023-01-04T22:28:52.327Z,1.63
2023-01-04T22:31:20.393Z,1.70
2023-01-04T22:33:49.787Z,1.80
2023-01-04T22:36:22.733Z,1.70
2023-01-04T22:38:52.693Z,1.90
2023-01-04T22:41:22.218Z,1.90
2023-01-04T22:43:55.567Z,1.60
2023-01-04T22:46:24.287Z,2.33
2023-01-04T22:48:54.093Z,1.80
2023-01-04T22:51:23.212Z,1.70
2023-01-04T22:53:54.395Z,1.70
2023-01-04T22:56:23.362Z,1.80
2023-01-04T22:58:54.974Z,1.70
2023-01-04T23:01:24.790Z,1.70
2023-01-04T23:03:55.185Z,1.67
2023-01-04T23:06:24.717Z,1.80
2023-01-04T23:08:57.332Z,1.80
2023-01-04T23:11:26.578Z,1.73
2023-01-04T23:13:54.971Z,1.60
2023-01-04T23:16:29.629Z,1.70
2023-01-04T23:19:01.985Z,1.50
2023-01-04T23:21:30.758Z,1.60
2023-01-04T23:24:00.258Z,1.53
2023-01-04T23:26:30.829Z,1.50
2023-01-04T23:28:59.279Z,1.60
2023-01-04T23:31:29.109Z,1.80
2023-01-04T23:33:59.605Z,1.70
2023-01-04T23:36:31.873Z,1.70
2023-01-04T23:39:01.976Z,1.80
2023-01-04T23:41:44.180Z,1.60
2023-01-04T23:44:14.531Z,1.70
2023-01-04T23:46:43.249Z,1.80
2023-01-04T23:49:11.643Z,1.60
2023-01-04T23:51:42.720Z,1.80
2023-01-04T23:54:11.254Z,1.80
2023-01-04T23:56:40.033Z,1.90
2023-01-04T23:59:09.061Z,1.77
